createdAt,value
2018-01-25T00:00:25.205Z,0.32
2018-01-25T00:02:54.784Z,0.26
2018-01-25T00:05:24.665Z,0.17
2018-01-25T00:07:54.551Z,0.22
2018-01-25T00:10:24.482Z,0.22
2018-01-25T00:12:54.322Z,0.38
2018-01-25T00:15:24.124Z,0.38
2018-01-25T00:17:53.968Z,0.43
2018-01-25T00:20:23.802Z,0.44
2018-01-25T00:22:53.636Z,0.38
2018-01-25T00:25:23.457Z,0.34
2018-01-25T00:27:53.292Z,0.32
2018-01-25T00:30:23.121Z,0.27
2018-01-25T00:32:53.472Z,0.15
2018-01-25T00:35:23.936Z,0.07
2018-01-25T00:37:53.917Z,0.04
2018-01-25T00:40:24.027Z,0.05
2018-01-25T00:42:53.724Z,-0.04
2018-01-25T00:45:23.680Z,-0.14
2018-01-25T00:47:53.489Z,-0.17
2018-01-25T00:50:23.346Z,-0.18
2018-01-25T00:52:53.311Z,-0.18
2018-01-25T00:55:23.130Z,-0.19
2018-01-25T00:57:52.959Z,-0.17
2018-01-25T01:00:22.848Z,-0.15
2018-01-25T01:02:52.746Z,-0.16
2018-01-25T01:05:22.586Z,-0.14
2018-01-25T01:07:52.401Z,0.04
2018-01-25T01:10:22.260Z,0.24
2018-01-25T01:12:52.095Z,0.40
2018-01-25T01:15:21.932Z,0.60
2018-01-25T01:17:51.767Z,0.74
2018-01-25T01:20:21.583Z,0.68
2018-01-25T01:22:51.409Z,0.78
2018-01-25T01:25:21.239Z,0.92
2018-01-25T01:27:51.186Z,0.97
2018-01-25T01:30:21.024Z,1.00
2018-01-25T01:32:50.827Z,0.93
2018-01-25T01:35:20.744Z,0.80
2018-01-25T01:37:50.625Z,0.58
2018-01-25T01:40:20.470Z,0.44
2018-01-25T01:42:50.279Z,0.33
2018-01-25T01:45:20.090Z,0.22
2018-01-25T01:47:49.921Z,0.15
2018-01-25T01:50:19.732Z,0.12
2018-01-25T01:52:49.544Z,0.11
2018-01-25T01:55:19.431Z,0.09
2018-01-25T01:57:49.625Z,0.05
2018-01-25T02:00:19.485Z,0.02
2018-01-25T02:02:49.076Z,0.07
2018-01-25T02:05:18.921Z,-0.01
2018-01-25T02:07:48.752Z,-0.06
2018-01-25T02:10:18.583Z,-0.13
2018-01-25T02:12:48.402Z,-0.15
2018-01-25T02:15:18.324Z,-0.01
2018-01-25T02:17:48.148Z,-0.08
2018-01-25T02:20:17.639Z,-0.15
2018-01-25T02:22:47.696Z,-0.24
2018-01-25T02:25:17.519Z,-0.26
2018-01-25T02:27:47.392Z,-0.26
2018-01-25T02:30:17.361Z,-0.32
2018-01-25T02:32:47.259Z,-0.38
2018-01-25T02:35:17.077Z,-0.35
2018-01-25T02:37:46.889Z,-0.25
2018-01-25T02:40:16.757Z,-0.29
2018-01-25T02:42:46.605Z,-0.06
2018-01-25T02:45:16.432Z,0.17
2018-01-25T02:47:46.015Z,0.03
2018-01-25T02:50:15.512Z,-0.11
2018-01-25T02:52:45.361Z,-0.24
2018-01-25T02:55:15.682Z,-0.35
2018-01-25T02:57:45.653Z,-0.48
2018-01-25T03:00:15.488Z,-0.53
2018-01-25T03:02:45.320Z,-0.52
2018-01-25T03:05:15.213Z,-0.56
2018-01-25T03:07:45.022Z,-0.63
2018-01-25T03:10:14.913Z,-0.67
2018-01-25T03:12:44.754Z,-0.70
2018-01-25T03:15:14.587Z,-0.79
2018-01-25T03:17:44.481Z,-0.85
2018-01-25T03:20:14.316Z,-0.92
2018-01-25T03:22:44.197Z,-0.95
2018-01-25T03:25:14.031Z,-1.02
2018-01-25T03:27:43.867Z,-0.90
2018-01-25T03:30:13.696Z,-0.93
2018-01-25T03:32:43.553Z,-0.82
2018-01-25T03:35:13.430Z,-0.83
2018-01-25T03:37:43.264Z,-0.92
2018-01-25T03:40:12.887Z,-0.91
2018-01-25T03:42:42.748Z,-0.83
2018-01-25T03:45:14.962Z,-0.83
2018-01-25T03:47:44.976Z,-0.70
2018-01-25T03:50:14.605Z,-0.63
2018-01-25T03:52:44.430Z,-0.57
2018-01-25T03:55:14.295Z,-0.56
2018-01-25T03:57:44.185Z,-0.49
2018-01-25T04:00:13.805Z,-0.42
2018-01-25T04:02:43.901Z,-0.38
2018-01-25T04:05:13.714Z,-0.36
2018-01-25T04:07:43.752Z,-0.36
2018-01-25T04:10:13.559Z,-0.36
2018-01-25T04:12:43.401Z,-0.36
2018-01-25T04:15:13.222Z,-0.30
2018-01-25T04:17:43.115Z,-0.32
2018-01-25T04:20:12.992Z,-0.34
2018-01-25T04:22:42.613Z,-0.37
2018-01-25T04:25:12.460Z,-0.39
2018-01-25T04:27:42.317Z,-0.36
2018-01-25T04:30:12.122Z,-0.31
2018-01-25T04:32:42.073Z,-0.29
2018-01-25T04:35:11.936Z,-0.30
2018-01-25T04:37:41.778Z,-0.35
2018-01-25T04:40:11.638Z,-0.38
2018-01-25T04:42:41.393Z,-0.43
2018-01-25T04:45:12.872Z,-0.49
2018-01-25T04:47:42.682Z,-0.51
2018-01-25T04:50:12.503Z,-0.49
2018-01-25T04:52:42.339Z,-0.48
2018-01-25T04:55:12.173Z,-0.42
2018-01-25T04:57:41.841Z,-0.33
2018-01-25T05:00:11.672Z,-0.22
2018-01-25T05:02:41.598Z,-0.18
2018-01-25T05:05:11.405Z,-0.25
2018-01-25T05:07:41.450Z,-0.24
2018-01-25T05:10:11.258Z,-0.16
2018-01-25T05:12:41.234Z,-0.12
2018-01-25T05:15:11.152Z,-0.07
2018-01-25T05:17:42.678Z,-0.12
2018-01-25T05:20:12.317Z,-0.03
2018-01-25T05:22:42.056Z,0.00
2018-01-25T05:25:12.028Z,0.00
2018-01-25T05:27:42.029Z,0.01
2018-01-25T05:30:11.885Z,0.02
2018-01-25T05:32:41.847Z,0.02
2018-01-25T05:35:11.819Z,-0.01
2018-01-25T05:37:41.736Z,-0.01
2018-01-25T05:40:11.675Z,0.00
2018-01-25T05:42:41.585Z,0.07
2018-01-25T05:45:11.474Z,0.10
2018-01-25T05:47:41.404Z,0.09
2018-01-25T05:50:12.075Z,0.14
2018-01-25T05:52:42.039Z,0.17
2018-01-25T05:55:11.908Z,0.19
2018-01-25T05:57:41.763Z,0.20
2018-01-25T06:00:11.705Z,0.26
2018-01-25T06:02:41.556Z,0.23
2018-01-25T06:05:11.721Z,0.29
2018-01-25T06:07:41.739Z,0.32
2018-01-25T06:10:11.602Z,0.36
2018-01-25T06:12:41.562Z,0.36
2018-01-25T06:15:12.535Z,0.38
2018-01-25T06:17:42.401Z,0.43
2018-01-25T06:20:12.452Z,0.48
2018-01-25T06:22:42.538Z,0.49
2018-01-25T06:25:12.995Z,0.47
2018-01-25T06:27:42.947Z,0.45
2018-01-25T06:30:12.921Z,0.49
2018-01-25T06:32:42.952Z,0.52
2018-01-25T06:35:12.860Z,0.56
2018-01-25T06:37:42.696Z,0.57
2018-01-25T06:40:12.627Z,0.59
2018-01-25T06:42:43.065Z,0.61
2018-01-25T06:45:13.401Z,0.67
2018-01-25T06:47:47.500Z,0.70
2018-01-25T06:50:20.259Z,0.72
2018-01-25T06:52:50.474Z,0.73
2018-01-25T06:55:20.696Z,0.74
2018-01-25T06:57:50.619Z,0.76
2018-01-25T07:00:20.948Z,0.78
2018-01-25T07:02:50.825Z,0.77
2018-01-25T07:05:20.795Z,0.79
2018-01-25T07:07:50.710Z,0.83
2018-01-25T07:10:20.728Z,0.87
2018-01-25T07:12:50.689Z,0.94
2018-01-25T07:15:20.551Z,0.96
2018-01-25T07:17:50.512Z,1.14
2018-01-25T07:20:20.411Z,1.36
2018-01-25T07:22:50.286Z,1.53
2018-01-25T07:25:20.188Z,1.62
2018-01-25T07:27:50.081Z,1.56
2018-01-25T07:30:20.206Z,1.70
2018-01-25T07:32:50.113Z,1.75
2018-01-25T07:35:20.034Z,1.79
2018-01-25T07:37:49.839Z,1.82
2018-01-25T07:40:19.754Z,1.90
2018-01-25T07:42:50.022Z,1.96
2018-01-25T07:45:19.971Z,2.00
2018-01-25T07:47:49.928Z,1.98
2018-01-25T07:50:19.885Z,1.98
2018-01-25T07:52:49.813Z,2.02
2018-01-25T07:55:19.699Z,1.99
2018-01-25T07:57:53.429Z,2.12
2018-01-25T08:00:23.252Z,2.22
2018-01-25T08:02:54.037Z,2.30
2018-01-25T08:05:24.050Z,2.36
2018-01-25T08:07:53.928Z,2.45
2018-01-25T08:10:23.780Z,2.58
2018-01-25T08:12:53.564Z,2.71
2018-01-25T08:15:23.423Z,2.81
2018-01-25T08:17:53.338Z,2.97
2018-01-25T08:20:23.508Z,3.17
2018-01-25T08:22:53.053Z,3.40
2018-01-25T08:25:22.965Z,3.63
2018-01-25T08:27:53.231Z,3.86
2018-01-25T08:30:23.176Z,4.11
2018-01-25T08:32:52.809Z,4.28
2018-01-25T08:35:22.652Z,4.49
2018-01-25T08:37:55.005Z,4.69
2018-01-25T08:40:24.877Z,4.90
2018-01-25T08:42:54.715Z,4.85
2018-01-25T08:45:24.412Z,4.86
2018-01-25T08:47:54.250Z,4.68
2018-01-25T08:50:24.129Z,4.53
2018-01-25T08:52:53.982Z,4.56
2018-01-25T08:55:23.800Z,4.79
2018-01-25T08:57:53.635Z,5.22
2018-01-25T09:00:23.739Z,5.35
2018-01-25T09:02:53.767Z,5.27
2018-01-25T09:05:23.627Z,5.34
2018-01-25T09:07:53.477Z,5.26
2018-01-25T09:10:23.336Z,5.54
2018-01-25T09:12:53.179Z,5.71
2018-01-25T09:15:22.996Z,6.37
2018-01-25T09:17:52.931Z,6.51
2018-01-25T09:20:23.005Z,6.62
2018-01-25T09:22:53.133Z,7.32
2018-01-25T09:25:22.999Z,6.79
2018-01-25T09:27:53.863Z,7.53
2018-01-25T09:30:23.663Z,7.33
2018-01-25T09:32:53.548Z,7.44
2018-01-25T09:35:23.700Z,7.31
2018-01-25T09:37:53.807Z,7.06
2018-01-25T09:40:23.711Z,7.08
2018-01-25T09:42:53.698Z,7.69
2018-01-25T09:45:23.566Z,8.22
2018-01-25T09:47:53.314Z,6.96
2018-01-25T09:50:23.311Z,7.67
2018-01-25T09:52:53.208Z,8.10
2018-01-25T09:55:23.483Z,8.00
2018-01-25T09:57:54.228Z,6.61
2018-01-25T10:00:24.140Z,7.50
2018-01-25T10:02:54.244Z,7.81
2018-01-25T10:05:24.165Z,8.07
2018-01-25T10:07:53.871Z,7.97
2018-01-25T10:10:23.836Z,8.23
2018-01-25T10:12:53.669Z,7.41
2018-01-25T10:15:23.472Z,7.12
2018-01-25T10:17:53.316Z,9.81
2018-01-25T10:20:23.353Z,12.41
2018-01-25T10:22:53.156Z,14.11
2018-01-25T10:25:22.972Z,13.15
2018-01-25T10:27:52.831Z,12.57
2018-01-25T10:30:22.665Z,14.15
2018-01-25T10:32:52.526Z,15.11
2018-01-25T10:35:22.419Z,16.39
2018-01-25T10:37:52.245Z,17.75
2018-01-25T10:40:22.091Z,17.17
2018-01-25T10:42:51.618Z,17.59
2018-01-25T10:45:21.352Z,14.24
2018-01-25T10:47:50.979Z,16.89
2018-01-25T10:50:20.497Z,16.25
2018-01-25T10:52:51.138Z,15.26
2018-01-25T10:55:20.659Z,14.60
2018-01-25T10:57:54.931Z,14.82
2018-01-25T11:00:24.268Z,16.55
2018-01-25T11:02:53.833Z,18.00
2018-01-25T11:05:23.354Z,15.24
2018-01-25T11:07:52.879Z,17.88
2018-01-25T11:10:22.451Z,18.19
2018-01-25T11:12:52.309Z,18.14
2018-01-25T11:15:21.851Z,16.51
2018-01-25T11:17:51.428Z,16.15
2018-01-25T11:20:20.953Z,18.11
2018-01-25T11:22:50.611Z,18.18
2018-01-25T11:25:20.116Z,18.57
2018-01-25T11:27:50.536Z,18.20
2018-01-25T11:30:20.094Z,18.83
2018-01-25T11:32:49.725Z,16.79
2018-01-25T11:35:19.265Z,18.67
2018-01-25T11:37:48.802Z,18.16
2018-01-25T11:40:18.384Z,19.76
2018-01-25T11:42:47.963Z,19.80
2018-01-25T11:45:17.218Z,18.61
2018-01-25T11:47:46.837Z,16.65
2018-01-25T11:50:16.399Z,17.60
2018-01-25T11:52:45.901Z,17.50
2018-01-25T11:55:15.438Z,17.09
2018-01-25T11:57:44.992Z,15.21
2018-01-25T12:00:14.503Z,14.02
2018-01-25T12:02:44.457Z,12.55
2018-01-25T12:05:14.265Z,10.27
2018-01-25T12:07:44.078Z,9.97
2018-01-25T12:10:13.878Z,9.25
2018-01-25T12:12:43.755Z,8.50
2018-01-25T12:15:13.588Z,7.98
2018-01-25T12:17:44.239Z,8.03
2018-01-25T12:20:14.067Z,8.03
2018-01-25T12:22:43.914Z,8.39
2018-01-25T12:25:13.701Z,7.86
2018-01-25T12:27:43.496Z,8.00
2018-01-25T12:30:13.441Z,8.25
2018-01-25T12:32:43.335Z,8.12
2018-01-25T12:35:13.639Z,8.09
2018-01-25T12:37:44.631Z,7.69
2018-01-25T12:40:16.753Z,7.75
2018-01-25T12:42:52.289Z,7.42
2018-01-25T12:45:22.272Z,6.68
2018-01-25T12:47:52.399Z,6.39
2018-01-25T12:50:26.760Z,6.60
2018-01-25T12:52:56.881Z,6.60
2018-01-25T12:55:26.994Z,6.52
2018-01-25T12:57:59.478Z,6.97
2018-01-25T13:00:30.191Z,6.99
2018-01-25T13:03:01.137Z,6.78
2018-01-25T13:05:32.464Z,6.93
2018-01-25T13:08:02.462Z,7.17
2018-01-25T13:10:32.477Z,7.11
2018-01-25T13:13:02.367Z,6.63
2018-01-25T13:15:33.024Z,6.70
2018-01-25T13:18:03.190Z,6.69
2018-01-25T13:20:34.216Z,6.98
2018-01-25T13:23:04.314Z,6.50
2018-01-25T13:25:34.374Z,6.54
2018-01-25T13:28:05.373Z,6.27
2018-01-25T13:30:35.255Z,5.91
2018-01-25T13:33:10.189Z,5.96
2018-01-25T13:35:42.815Z,5.66
2018-01-25T13:38:22.838Z,5.11
2018-01-25T13:40:58.736Z,5.79
2018-01-25T13:43:29.580Z,5.57
2018-01-25T13:45:59.378Z,5.65
2018-01-25T13:48:29.961Z,5.81
2018-01-25T13:51:00.885Z,5.83
2018-01-25T13:53:34.685Z,5.83
2018-01-25T13:56:05.775Z,5.90
2018-01-25T13:58:38.849Z,5.73
2018-01-25T14:01:10.630Z,5.58
2018-01-25T14:03:41.425Z,5.53
2018-01-25T14:06:11.419Z,5.39
2018-01-25T14:08:43.463Z,5.13
2018-01-25T14:11:13.748Z,5.37
2018-01-25T14:13:51.898Z,5.53
2018-01-25T14:16:25.413Z,5.44
2018-01-25T14:21:37.457Z,5.30
2018-01-25T14:26:43.124Z,5.19
2018-01-25T14:29:17.568Z,5.14
2018-01-25T14:31:52.115Z,5.13
2018-01-25T14:34:23.314Z,4.82
2018-01-25T14:37:03.129Z,4.97
2018-01-25T14:39:37.198Z,5.06
2018-01-25T14:42:11.009Z,4.93
2018-01-25T14:44:42.447Z,4.33
2018-01-25T14:49:55.555Z,3.92
2018-01-25T14:52:27.145Z,3.84
2018-01-25T14:54:58.646Z,3.90
2018-01-25T14:57:28.631Z,4.00
2018-01-25T14:59:59.071Z,4.11
2018-01-25T15:05:08.401Z,3.67
2018-01-25T15:07:51.016Z,3.61
2018-01-25T15:10:31.071Z,3.62
2018-01-25T15:15:43.060Z,3.33
2018-01-25T15:18:19.690Z,3.48
2018-01-25T15:20:55.001Z,3.57
2018-01-25T15:23:29.606Z,3.53
2018-01-25T15:26:08.690Z,3.51
2018-01-25T15:28:39.482Z,3.51
2018-01-25T15:31:10.285Z,3.52
2018-01-25T15:33:44.200Z,3.19
2018-01-25T15:41:37.784Z,3.38
2018-01-25T15:44:14.648Z,3.32
2018-01-25T15:46:48.087Z,3.30
2018-01-25T15:49:20.706Z,3.33
2018-01-25T15:51:52.880Z,3.32
2018-01-25T15:57:00.957Z,3.28
2018-01-25T15:59:33.648Z,3.37
2018-01-25T16:02:11.893Z,3.27
2018-01-25T16:04:41.892Z,3.14
2018-01-25T16:07:12.461Z,3.21
2018-01-25T16:09:47.086Z,3.32
2018-01-25T16:12:18.665Z,3.51
2018-01-25T16:14:48.621Z,3.27
2018-01-25T16:17:18.588Z,3.35
2018-01-25T16:19:50.442Z,3.38
2018-01-25T16:24:56.398Z,3.06
2018-01-25T16:27:27.166Z,3.00
2018-01-25T16:29:57.148Z,3.08
2018-01-25T16:32:28.912Z,3.00
2018-01-25T16:34:59.097Z,2.91
2018-01-25T16:37:29.338Z,2.91
2018-01-25T16:40:00.082Z,2.96
2018-01-25T16:42:30.123Z,2.98
2018-01-25T16:45:00.433Z,2.94
2018-01-25T16:47:31.266Z,3.14
2018-01-25T16:52:42.281Z,2.93
2018-01-25T16:57:51.522Z,3.12
2018-01-25T17:00:21.740Z,2.91
2018-01-25T17:02:56.128Z,3.08
2018-01-25T17:05:26.397Z,2.99
2018-01-25T17:10:36.095Z,2.76
2018-01-25T17:13:10.924Z,2.93
2018-01-25T17:15:42.248Z,2.95
2018-01-25T17:18:13.536Z,2.93
2018-01-25T17:20:43.468Z,2.79
2018-01-25T17:23:13.351Z,2.87
2018-01-25T17:25:44.140Z,2.89
2018-01-25T17:28:14.228Z,2.95
2018-01-25T17:33:18.897Z,3.01
2018-01-25T17:35:50.961Z,3.00
2018-01-25T17:38:21.129Z,3.08
2018-01-25T17:40:54.826Z,3.02
2018-01-25T17:43:24.879Z,3.06
2018-01-25T17:46:01.762Z,3.12
2018-01-25T17:48:31.603Z,3.12
2018-01-25T17:51:01.562Z,3.15
2018-01-25T17:53:32.215Z,3.15
2018-01-25T17:56:02.499Z,3.12
2018-01-25T17:58:33.550Z,3.16
2018-01-25T18:06:13.898Z,3.32
2018-01-25T18:08:49.230Z,3.21
2018-01-25T18:11:19.509Z,3.16
2018-01-25T18:13:49.663Z,3.25
2018-01-25T18:16:19.608Z,3.17
2018-01-25T18:18:49.782Z,3.03
2018-01-25T18:21:21.346Z,3.07
2018-01-25T18:23:51.595Z,3.09
2018-01-25T18:26:22.271Z,3.03
2018-01-25T18:28:52.414Z,3.00
2018-01-25T18:31:22.509Z,3.06
2018-01-25T18:33:52.125Z,3.02
2018-01-25T18:36:22.319Z,2.95
2018-01-25T18:38:52.931Z,3.04
2018-01-25T18:41:22.972Z,3.07
2018-01-25T18:43:52.594Z,2.93
2018-01-25T18:46:22.390Z,2.98
2018-01-25T18:48:52.199Z,3.02
2018-01-25T18:51:22.017Z,3.10
2018-01-25T18:53:51.835Z,3.14
2018-01-25T18:56:21.859Z,3.11
2018-01-25T18:58:51.660Z,3.06
2018-01-25T19:01:21.549Z,3.02
2018-01-25T19:03:51.426Z,3.08
2018-01-25T19:06:22.113Z,3.10
2018-01-25T19:08:51.928Z,3.17
2018-01-25T19:11:21.747Z,3.26
2018-01-25T19:13:51.548Z,3.20
2018-01-25T19:16:21.366Z,3.22
2018-01-25T19:18:51.178Z,3.20
2018-01-25T19:21:21.004Z,3.17
2018-01-25T19:23:50.886Z,3.19
2018-01-25T19:26:20.667Z,3.23
2018-01-25T19:28:50.457Z,3.21
2018-01-25T19:31:20.457Z,3.18
2018-01-25T19:33:50.259Z,3.16
2018-01-25T19:36:20.078Z,3.24
2018-01-25T19:38:49.900Z,3.31
2018-01-25T19:41:19.786Z,3.22
2018-01-25T19:43:50.016Z,3.27
2018-01-25T19:46:19.827Z,3.17
2018-01-25T19:48:49.689Z,3.29
2018-01-25T19:51:19.495Z,3.18
2018-01-25T19:53:49.572Z,3.15
2018-01-25T19:56:19.417Z,3.11
2018-01-25T19:58:49.698Z,3.13
2018-01-25T20:01:19.522Z,3.26
2018-01-25T20:03:49.343Z,3.28
2018-01-25T20:06:19.156Z,3.11
2018-01-25T20:08:49.064Z,2.98
2018-01-25T20:11:18.900Z,2.99
2018-01-25T20:13:48.724Z,3.02
2018-01-25T20:16:18.542Z,3.11
2018-01-25T20:18:48.373Z,3.15
2018-01-25T20:21:18.174Z,3.18
2018-01-25T20:23:47.985Z,3.15
2018-01-25T20:26:17.599Z,3.14
2018-01-25T20:28:47.411Z,3.19
2018-01-25T20:31:17.228Z,3.17
2018-01-25T20:33:47.274Z,3.19
2018-01-25T20:36:17.785Z,3.17
2018-01-25T20:38:47.603Z,3.16
2018-01-25T20:41:17.400Z,3.23
2018-01-25T20:43:47.221Z,3.25
2018-01-25T20:46:17.058Z,3.24
2018-01-25T20:48:46.835Z,3.27
2018-01-25T20:51:16.670Z,3.41
2018-01-25T20:53:46.458Z,3.33
2018-01-25T20:56:16.270Z,3.25
2018-01-25T20:58:46.051Z,3.20
2018-01-25T21:01:15.860Z,3.14
2018-01-25T21:03:45.664Z,3.12
2018-01-25T21:06:15.463Z,3.16
2018-01-25T21:08:45.086Z,3.16
2018-01-25T21:11:14.921Z,3.35
2018-01-25T21:13:44.705Z,3.30
2018-01-25T21:16:14.533Z,3.31
2018-01-25T21:18:44.083Z,3.36
2018-01-25T21:21:13.988Z,3.29
2018-01-25T21:23:43.776Z,3.30
2018-01-25T21:26:13.558Z,3.26
2018-01-25T21:28:43.370Z,3.27
2018-01-25T21:31:13.182Z,3.29
2018-01-25T21:33:42.998Z,3.23
2018-01-25T21:36:13.013Z,3.20
2018-01-25T21:38:44.311Z,3.19
2018-01-25T21:41:14.213Z,3.20
2018-01-25T21:43:44.060Z,3.34
2018-01-25T21:46:14.886Z,3.37
2018-01-25T21:48:44.885Z,3.31
2018-01-25T21:51:14.740Z,3.25
2018-01-25T21:53:44.698Z,3.18
2018-01-25T21:56:14.633Z,3.19
2018-01-25T21:58:44.566Z,3.14
2018-01-25T22:01:14.553Z,3.16
2018-01-25T22:03:44.543Z,3.11
2018-01-25T22:06:14.450Z,3.15
2018-01-25T22:08:44.607Z,3.14
2018-01-25T22:11:14.524Z,3.25
2018-01-25T22:13:44.525Z,3.23
2018-01-25T22:16:15.240Z,3.25
2018-01-25T22:18:45.211Z,3.16
2018-01-25T22:21:15.118Z,3.13
2018-01-25T22:23:45.046Z,3.08
2018-01-25T22:26:15.029Z,3.11
2018-01-25T22:28:48.676Z,3.20
2018-01-25T22:31:18.559Z,3.16
2018-01-25T22:33:48.837Z,3.15
2018-01-25T22:36:19.196Z,3.13
2018-01-25T22:38:49.757Z,3.15
2018-01-25T22:41:19.841Z,3.14
2018-01-25T22:43:49.725Z,3.16
2018-01-25T22:46:19.802Z,3.21
2018-01-25T22:48:49.833Z,3.21
2018-01-25T22:51:19.803Z,3.06
2018-01-25T22:53:49.855Z,3.13
2018-01-25T22:56:19.806Z,3.10
2018-01-25T22:58:49.689Z,3.12
2018-01-25T23:01:22.329Z,3.12
2018-01-25T23:03:52.629Z,3.18
2018-01-25T23:06:22.592Z,3.17
2018-01-25T23:08:52.878Z,3.20
2018-01-25T23:11:22.727Z,3.23
2018-01-25T23:13:52.672Z,3.15
2018-01-25T23:16:22.618Z,3.19
2018-01-25T23:18:52.526Z,3.19
2018-01-25T23:21:22.502Z,3.27
2018-01-25T23:23:52.437Z,3.15
2018-01-25T23:26:22.409Z,3.23
2018-01-25T23:28:52.098Z,3.19
2018-01-25T23:31:23.433Z,3.05
2018-01-25T23:33:58.517Z,2.99
2018-01-25T23:36:29.591Z,3.04
2018-01-25T23:38:59.769Z,3.02
2018-01-25T23:41:29.721Z,2.96
2018-01-25T23:43:59.738Z,3.08
2018-01-25T23:46:30.569Z,3.00
2018-01-25T23:49:00.656Z,2.92
2018-01-25T23:51:30.733Z,2.87
2018-01-25T23:54:02.238Z,2.92
2018-01-25T23:56:32.324Z,2.88
2018-01-25T23:59:02.773Z,2.93
